createdAt,value
2022-10-23T00:00:34.509Z,20.80
2022-10-23T00:03:26.200Z,20.30
2022-10-23T00:05:57.602Z,21.60
2022-10-23T00:08:29.006Z,20.20
2022-10-23T00:11:00.475Z,19.00
2022-10-23T00:13:31.964Z,19.00
2022-10-23T00:16:03.427Z,18.50
2022-10-23T00:18:36.588Z,18.80
2022-10-23T00:21:10.565Z,19.30
2022-10-23T00:23:42.791Z,19.10
2022-10-23T00:26:15.900Z,17.50
2022-10-23T00:28:50.790Z,18.10
2022-10-23T00:31:23.760Z,17.20
2022-10-23T00:33:55.310Z,16.70
2022-10-23T00:36:26.812Z,17.70
2022-10-23T00:38:58.347Z,16.20
2022-10-23T00:41:32.444Z,17.00
2022-10-23T00:44:31.231Z,17.30
2022-10-23T00:47:02.694Z,17.50
2022-10-23T00:49:35.574Z,18.80
2022-10-23T00:52:09.375Z,19.40
2022-10-23T00:54:44.295Z,20.00
2022-10-23T00:57:17.024Z,20.60
2022-10-23T00:59:48.592Z,20.80
2022-10-23T01:02:20.331Z,21.20
2022-10-23T01:05:16.936Z,21.80
2022-10-23T01:07:57.842Z,22.30
2022-10-23T01:10:38.247Z,22.50
2022-10-23T01:13:18.040Z,23.70
2022-10-23T01:15:55.369Z,22.90
2022-10-23T01:18:52.907Z,23.60
2022-10-23T01:21:47.411Z,24.70
2022-10-23T01:27:08.275Z,25.50
2022-10-23T01:29:45.626Z,25.00
2022-10-23T01:32:23.610Z,24.50
2022-10-23T01:35:02.884Z,25.00
2022-10-23T01:37:41.130Z,24.50
2022-10-23T01:40:21.535Z,24.80
2022-10-23T01:43:18.300Z,26.50
2022-10-23T01:45:54.150Z,24.00
2022-10-23T01:48:31.428Z,24.10
2022-10-23T01:51:09.311Z,24.90
2022-10-23T01:53:44.761Z,24.40
2022-10-23T01:56:23.125Z,23.50
2022-10-23T01:58:58.849Z,24.40
2022-10-23T02:01:34.211Z,24.10
2022-10-23T02:06:55.475Z,24.40
2022-10-23T02:09:27.346Z,24.80
2022-10-23T02:12:05.418Z,24.10
2022-10-23T02:14:45.662Z,24.90
2022-10-23T02:17:30.302Z,23.60
2022-10-23T02:20:14.682Z,24.10
2022-10-23T02:22:54.213Z,23.40
2022-10-23T02:25:32.332Z,23.80
2022-10-23T02:28:11.870Z,23.40
2022-10-23T02:30:47.429Z,24.40
2022-10-23T02:33:20.336Z,24.30
2022-10-23T02:35:52.496Z,24.10
2022-10-23T02:38:33.850Z,23.80
2022-10-23T02:41:15.848Z,24.00
2022-10-23T02:43:57.368Z,23.10
2022-10-23T02:46:37.654Z,24.30
2022-10-23T02:49:15.661Z,25.50
2022-10-23T02:51:56.569Z,26.00
2022-10-23T02:54:41.696Z,27.70
2022-10-23T02:57:21.325Z,27.30
2022-10-23T03:00:02.442Z,29.10
2022-10-23T03:02:40.499Z,27.10
2022-10-23T03:05:16.094Z,29.60
2022-10-23T03:07:52.093Z,28.70
2022-10-23T03:10:23.789Z,30.40
2022-10-23T03:12:55.295Z,29.20
2022-10-23T03:15:28.355Z,30.70
2022-10-23T03:18:02.791Z,31.50
2022-10-23T03:20:36.024Z,30.00
2022-10-23T03:23:07.569Z,30.40
2022-10-23T03:25:38.957Z,30.90
2022-10-23T03:28:10.414Z,27.90
2022-10-23T03:30:41.922Z,28.90
2022-10-23T03:33:13.342Z,29.30
2022-10-23T03:35:44.772Z,28.90
2022-10-23T03:38:16.400Z,30.40
2022-10-23T03:40:47.872Z,30.90
2022-10-23T03:43:19.613Z,30.20
2022-10-23T03:45:52.456Z,30.40
2022-10-23T03:48:26.481Z,30.50
2022-10-23T03:50:57.955Z,31.70
2022-10-23T03:54:02.097Z,30.80
2022-10-23T03:56:36.351Z,30.10
2022-10-23T03:59:21.589Z,30.80
2022-10-23T04:01:56.221Z,30.40
2022-10-23T04:04:31.024Z,30.00
2022-10-23T04:07:02.500Z,30.10
2022-10-23T04:09:34.039Z,29.20
2022-10-23T04:12:09.285Z,30.60
2022-10-23T04:14:45.579Z,29.80
2022-10-23T04:17:19.679Z,29.50
2022-10-23T04:19:51.149Z,29.50
2022-10-23T04:22:24.800Z,29.10
2022-10-23T04:24:59.852Z,29.10
2022-10-23T04:27:31.416Z,28.80
2022-10-23T04:30:23.147Z,28.30
2022-10-23T04:33:04.855Z,27.50
2022-10-23T04:35:36.359Z,26.90
2022-10-23T04:38:53.527Z,27.10
2022-10-23T04:41:25.021Z,27.10
2022-10-23T04:44:16.706Z,27.40
2022-10-23T04:46:48.197Z,28.00
2022-10-23T04:49:19.710Z,26.50
2022-10-23T04:51:52.417Z,27.30
2022-10-23T04:54:25.828Z,26.90
2022-10-23T04:56:57.445Z,26.50
2022-10-23T04:59:28.880Z,27.30
2022-10-23T05:02:23.022Z,27.20
2022-10-23T05:04:52.690Z,26.40
2022-10-23T05:07:27.229Z,26.50
2022-10-23T05:09:58.697Z,26.20
2022-10-23T05:12:34.662Z,27.00
2022-10-23T05:15:07.907Z,27.20
2022-10-23T05:17:45.864Z,27.40
2022-10-23T05:20:21.252Z,26.90
2022-10-23T05:22:56.862Z,26.70
2022-10-23T05:25:29.324Z,27.10
2022-10-23T05:28:03.097Z,26.90
2022-10-23T05:33:21.472Z,26.60
2022-10-23T05:35:53.319Z,27.30
2022-10-23T05:38:26.297Z,28.00
2022-10-23T05:41:00.716Z,29.70
2022-10-23T05:43:32.772Z,27.50
2022-10-23T05:46:07.367Z,27.70
2022-10-23T05:48:55.348Z,28.10
2022-10-23T05:51:29.668Z,29.60
2022-10-23T05:54:01.125Z,29.30
2022-10-23T05:56:32.602Z,30.80
2022-10-23T05:59:04.175Z,33.20
2022-10-23T06:01:35.788Z,36.30
2022-10-23T06:04:07.660Z,37.30
2022-10-23T06:06:39.116Z,37.60
2022-10-23T06:09:10.608Z,36.40
2022-10-23T06:11:42.809Z,35.00
2022-10-23T06:14:14.426Z,36.40
2022-10-23T06:17:08.821Z,34.70
2022-10-23T06:19:44.595Z,35.10
2022-10-23T06:24:49.653Z,33.00
2022-10-23T06:27:22.732Z,33.80
2022-10-23T06:29:54.136Z,32.80
2022-10-23T06:32:25.821Z,32.80
2022-10-23T06:35:00.319Z,33.30
2022-10-23T06:37:31.795Z,34.10
2022-10-23T06:40:03.255Z,33.90
2022-10-23T06:42:34.695Z,34.00
2022-10-23T06:45:07.590Z,32.10
2022-10-23T06:47:39.015Z,31.90
2022-10-23T06:50:13.216Z,28.80
2022-10-23T06:52:47.804Z,29.60
2022-10-23T06:55:20.385Z,29.70
2022-10-23T06:57:51.852Z,27.40
2022-10-23T07:00:24.024Z,26.40
2022-10-23T07:02:55.957Z,26.90
2022-10-23T07:05:27.351Z,25.20
2022-10-23T07:07:58.954Z,24.40
2022-10-23T07:10:30.457Z,23.00
2022-10-23T07:13:03.171Z,24.00
2022-10-23T07:15:34.586Z,24.10
2022-10-23T07:18:14.425Z,25.00
2022-10-23T07:20:49.479Z,25.10
2022-10-23T07:23:21.144Z,24.70
2022-10-23T07:25:52.962Z,26.20
2022-10-23T07:28:24.649Z,25.00
2022-10-23T07:31:03.013Z,29.70
2022-10-23T07:33:34.794Z,29.60
2022-10-23T07:36:10.314Z,25.80
2022-10-23T07:38:42.114Z,26.00
2022-10-23T07:41:15.459Z,25.20
2022-10-23T07:43:47.238Z,25.00
2022-10-23T07:46:19.022Z,25.50
2022-10-23T07:48:50.667Z,25.10
2022-10-23T07:51:24.696Z,25.20
2022-10-23T07:53:56.389Z,23.60
2022-10-23T07:56:30.279Z,23.40
2022-10-23T08:01:35.353Z,21.70
2022-10-23T08:04:07.954Z,20.50
2022-10-23T08:06:39.643Z,19.20
2022-10-23T08:09:11.379Z,19.40
2022-10-23T08:11:43.504Z,18.70
2022-10-23T08:14:15.203Z,19.50
2022-10-23T08:16:46.879Z,19.00
2022-10-23T08:19:18.630Z,17.70
2022-10-23T08:21:55.939Z,16.30
2022-10-23T08:24:27.759Z,17.00
2022-10-23T08:26:59.966Z,16.50
2022-10-23T08:29:31.729Z,16.90
2022-10-23T08:32:03.716Z,16.40
2022-10-23T08:34:38.663Z,17.20
2022-10-23T08:37:10.379Z,17.80
2022-10-23T08:39:42.218Z,17.10
2022-10-23T08:42:24.488Z,17.20
2022-10-23T08:45:05.089Z,18.70
2022-10-23T08:47:43.519Z,17.60
2022-10-23T08:50:25.803Z,18.70
2022-10-23T08:53:04.020Z,19.10
2022-10-23T08:55:53.244Z,19.50
2022-10-23T08:58:33.204Z,19.10
2022-10-23T09:01:22.263Z,19.40
2022-10-23T09:03:54.156Z,19.40
2022-10-23T09:06:38.236Z,19.70
2022-10-23T09:11:57.031Z,17.60
2022-10-23T09:14:51.609Z,17.80
2022-10-23T09:17:27.551Z,16.80
2022-10-23T09:20:12.272Z,17.30
2022-10-23T09:22:45.901Z,17.90
2022-10-23T09:25:23.104Z,17.50
2022-10-23T09:27:59.079Z,18.50
2022-10-23T09:30:37.447Z,20.60
2022-10-23T09:33:21.673Z,21.50
2022-10-23T09:35:59.448Z,18.50
2022-10-23T09:38:33.707Z,16.80
2022-10-23T09:41:14.533Z,16.40
2022-10-23T09:43:46.553Z,15.90
2022-10-23T09:46:18.228Z,16.10
2022-10-23T09:49:03.530Z,16.80
2022-10-23T09:51:42.423Z,15.70
2022-10-23T09:54:21.288Z,15.50
2022-10-23T09:56:55.743Z,14.60
2022-10-23T09:59:31.630Z,14.10
2022-10-23T10:02:05.317Z,13.80
2022-10-23T10:04:42.339Z,13.80
2022-10-23T10:07:22.678Z,13.20
2022-10-23T10:09:56.608Z,14.30
2022-10-23T10:15:21.229Z,13.40
2022-10-23T10:18:07.886Z,12.60
2022-10-23T10:20:53.549Z,12.90
2022-10-23T10:23:34.661Z,12.80
2022-10-23T10:26:15.215Z,12.70
2022-10-23T10:29:02.281Z,13.20
2022-10-23T10:31:52.967Z,12.20
2022-10-23T10:34:34.855Z,11.60
2022-10-23T10:37:16.505Z,11.00
2022-10-23T10:39:58.011Z,10.10
2022-10-23T10:42:49.014Z,9.30
2022-10-23T10:45:32.176Z,8.70
2022-10-23T10:48:19.597Z,8.00
2022-10-23T10:50:58.260Z,8.20
2022-10-23T10:53:40.208Z,8.80
2022-10-23T10:56:18.108Z,7.90
2022-10-23T10:58:53.877Z,7.90
2022-10-23T11:01:30.280Z,6.90
2022-10-23T11:04:12.920Z,6.60
2022-10-23T11:06:47.431Z,6.30
2022-10-23T11:09:26.521Z,6.40
2022-10-23T11:12:00.213Z,5.80
2022-10-23T11:17:09.982Z,5.10
2022-10-23T11:19:46.895Z,5.20
2022-10-23T11:22:26.567Z,5.40
2022-10-23T11:25:23.241Z,4.90
2022-10-23T11:28:17.690Z,4.90
2022-10-23T11:31:11.763Z,4.80
2022-10-23T11:34:03.644Z,4.30
2022-10-23T11:36:51.596Z,3.90
2022-10-23T11:39:27.120Z,4.20
2022-10-23T11:42:13.143Z,4.50
2022-10-23T11:44:47.161Z,4.10
2022-10-23T11:47:40.292Z,3.70
2022-10-23T11:50:27.765Z,4.30
2022-10-23T11:53:14.814Z,4.50
2022-10-23T11:56:04.865Z,4.20
2022-10-23T11:58:47.917Z,4.10
2022-10-23T12:01:33.264Z,4.50
2022-10-23T12:04:17.372Z,4.60
2022-10-23T12:09:36.088Z,3.90
2022-10-23T12:12:19.236Z,4.40
2022-10-23T12:14:52.400Z,4.50
2022-10-23T12:17:36.820Z,4.60
2022-10-23T12:20:30.806Z,4.60
2022-10-23T12:23:25.979Z,4.20
2022-10-23T12:26:26.786Z,4.60
2022-10-23T12:29:07.891Z,4.20
2022-10-23T12:31:52.483Z,4.40
2022-10-23T12:34:43.937Z,4.50
2022-10-23T12:37:46.168Z,4.60
2022-10-23T12:40:17.950Z,4.50
2022-10-23T12:42:55.889Z,4.50
2022-10-23T12:45:30.188Z,4.80
2022-10-23T12:48:01.907Z,4.60
2022-10-23T12:50:35.689Z,4.40
2022-10-23T12:53:18.123Z,4.10
2022-10-23T12:55:58.271Z,4.90
2022-10-23T12:58:33.418Z,5.00
2022-10-23T13:01:08.435Z,5.20
2022-10-23T13:03:42.424Z,4.90
2022-10-23T13:06:14.656Z,4.40
2022-10-23T13:08:48.291Z,4.50
2022-10-23T13:11:22.698Z,5.00
2022-10-23T13:13:54.419Z,5.10
2022-10-23T13:16:27.865Z,4.50
2022-10-23T13:18:59.561Z,5.00
2022-10-23T13:21:32.678Z,4.60
2022-10-23T13:24:04.577Z,5.50
2022-10-23T13:26:42.904Z,5.00
2022-10-23T13:29:23.182Z,4.80
2022-10-23T13:31:55.038Z,5.20
2022-10-23T13:34:29.014Z,5.60
2022-10-23T13:37:04.743Z,5.80
2022-10-23T13:39:36.984Z,6.20
2022-10-23T13:42:16.685Z,5.70
2022-10-23T13:44:49.123Z,5.70
2022-10-23T13:47:21.683Z,6.20
2022-10-23T13:49:53.364Z,5.80
2022-10-23T13:52:25.257Z,5.30
2022-10-23T13:54:56.937Z,5.10
2022-10-23T13:57:28.881Z,6.40
2022-10-23T14:00:00.519Z,6.70
2022-10-23T14:02:32.412Z,7.10
2022-10-23T14:05:05.202Z,6.80
2022-10-23T14:07:37.058Z,6.20
2022-10-23T14:10:09.872Z,4.90
2022-10-23T14:12:45.858Z,4.10
2022-10-23T14:15:17.880Z,4.10
2022-10-23T14:17:49.629Z,3.70
2022-10-23T14:20:24.342Z,3.50
2022-10-23T14:22:57.825Z,3.90
2022-10-23T14:25:29.627Z,3.70
2022-10-23T14:28:01.328Z,4.10
2022-10-23T14:30:33.866Z,3.80
2022-10-23T14:33:05.829Z,3.90
2022-10-23T14:35:40.195Z,4.00
2022-10-23T14:38:11.925Z,5.10
2022-10-23T14:40:43.635Z,4.50
2022-10-23T14:43:15.425Z,4.50
2022-10-23T14:45:47.106Z,4.10
2022-10-23T14:48:18.731Z,3.90
2022-10-23T14:50:51.812Z,4.20
2022-10-23T14:53:23.458Z,4.40
2022-10-23T14:55:55.068Z,4.40
2022-10-23T14:58:26.967Z,4.00
2022-10-23T15:01:01.941Z,4.80
2022-10-23T15:03:34.368Z,4.40
2022-10-23T15:06:07.646Z,4.50
2022-10-23T15:08:39.368Z,4.60
2022-10-23T15:11:12.648Z,4.50
2022-10-23T15:13:45.352Z,4.20
2022-10-23T15:16:17.239Z,4.40
2022-10-23T15:18:49.006Z,4.90
2022-10-23T15:21:21.564Z,5.00
2022-10-23T15:23:55.015Z,4.90
2022-10-23T15:26:26.983Z,5.00
2022-10-23T15:29:01.451Z,5.40
2022-10-23T15:31:46.194Z,5.20
2022-10-23T15:34:19.980Z,5.20
2022-10-23T15:36:52.349Z,5.80
2022-10-23T15:39:26.905Z,5.50
2022-10-23T15:41:59.789Z,5.90
2022-10-23T15:44:33.994Z,5.70
2022-10-23T15:47:05.851Z,6.00
2022-10-23T15:49:40.373Z,5.80
2022-10-23T15:52:12.623Z,6.00
2022-10-23T15:54:44.235Z,5.80
2022-10-23T15:57:15.906Z,6.00
2022-10-23T15:59:48.014Z,5.60
2022-10-23T16:02:20.001Z,6.00
2022-10-23T16:04:52.017Z,6.30
2022-10-23T16:07:23.937Z,6.10
2022-10-23T16:09:55.642Z,7.00
2022-10-23T16:12:27.491Z,6.90
2022-10-23T16:15:01.186Z,7.40
2022-10-23T16:17:32.932Z,7.10
2022-10-23T16:20:04.857Z,7.00
2022-10-23T16:22:40.152Z,7.40
2022-10-23T16:25:14.927Z,7.70
2022-10-23T16:27:47.651Z,8.00
2022-10-23T16:30:21.758Z,12.70
2022-10-23T16:32:54.963Z,12.60
2022-10-23T16:35:26.812Z,17.40
2022-10-23T16:37:58.542Z,16.60
2022-10-23T16:40:30.313Z,17.30
2022-10-23T16:43:02.023Z,17.00
2022-10-23T16:45:37.001Z,19.20
2022-10-23T16:48:09.989Z,17.20
2022-10-23T16:50:42.772Z,16.20
2022-10-23T16:53:14.524Z,16.20
2022-10-23T16:55:46.224Z,18.20
2022-10-23T16:58:18.067Z,17.30
2022-10-23T17:00:58.743Z,16.80
2022-10-23T17:03:30.666Z,17.10
2022-10-23T17:06:06.183Z,16.10
2022-10-23T17:08:40.859Z,17.90
2022-10-23T17:11:15.284Z,20.60
2022-10-23T17:13:50.400Z,21.90
2022-10-23T17:16:26.559Z,23.70
2022-10-23T17:18:58.368Z,28.10
2022-10-23T17:21:34.980Z,31.60
2022-10-23T17:24:08.268Z,33.90
2022-10-23T17:26:40.600Z,28.40
2022-10-23T17:29:16.124Z,26.70
2022-10-23T17:31:50.174Z,27.50
2022-10-23T17:34:23.444Z,25.60
2022-10-23T17:36:57.055Z,25.70
2022-10-23T17:39:30.948Z,31.20
2022-10-23T17:44:32.451Z,28.20
2022-10-23T17:47:04.055Z,27.60
2022-10-23T17:49:35.525Z,28.60
2022-10-23T17:52:10.246Z,28.40
2022-10-23T17:54:43.187Z,27.90
2022-10-23T17:57:14.587Z,26.80
2022-10-23T17:59:46.187Z,26.80
2022-10-23T18:02:17.775Z,25.30
2022-10-23T18:04:49.286Z,24.70
2022-10-23T18:07:20.706Z,24.60
2022-10-23T18:09:52.775Z,23.80
2022-10-23T18:12:24.370Z,23.90
2022-10-23T18:14:56.366Z,24.40
2022-10-23T18:17:27.708Z,23.10
2022-10-23T18:20:01.978Z,25.90
2022-10-23T18:22:35.663Z,25.50
2022-10-23T18:25:08.469Z,24.00
2022-10-23T18:27:41.468Z,24.70
2022-10-23T18:30:15.323Z,24.50
2022-10-23T18:35:17.278Z,23.80
2022-10-23T18:37:49.016Z,24.30
2022-10-23T18:40:24.294Z,26.50
2022-10-23T18:42:59.516Z,26.50
2022-10-23T18:45:31.165Z,23.80
2022-10-23T18:48:03.646Z,24.40
2022-10-23T18:50:38.303Z,24.90
2022-10-23T18:53:10.349Z,25.30
2022-10-23T18:55:49.342Z,24.20
2022-10-23T18:58:21.465Z,24.90
2022-10-23T19:00:53.025Z,24.80
2022-10-23T19:03:24.480Z,25.40
2022-10-23T19:05:55.987Z,26.90
2022-10-23T19:08:27.720Z,28.10
2022-10-23T19:11:00.363Z,27.20
2022-10-23T19:13:35.263Z,26.80
2022-10-23T19:16:15.498Z,28.80
2022-10-23T19:18:51.695Z,30.00
2022-10-23T19:21:31.340Z,29.20
2022-10-23T19:24:08.407Z,31.10
2022-10-23T19:26:41.062Z,30.40
2022-10-23T19:29:17.124Z,30.40
2022-10-23T19:31:50.072Z,29.80
2022-10-23T19:34:25.141Z,29.50
2022-10-23T19:36:56.797Z,31.10
2022-10-23T19:39:28.902Z,30.90
2022-10-23T19:42:00.956Z,31.50
2022-10-23T19:44:32.731Z,31.90
2022-10-23T19:47:04.403Z,32.90
2022-10-23T19:49:35.859Z,35.50
2022-10-23T19:52:07.822Z,33.70
2022-10-23T19:54:41.129Z,34.60
2022-10-23T19:57:12.722Z,34.60
2022-10-23T19:59:49.034Z,35.70
2022-10-23T20:02:21.024Z,36.70
2022-10-23T20:04:52.773Z,35.60
2022-10-23T20:07:24.259Z,35.10
2022-10-23T20:09:55.925Z,36.60
2022-10-23T20:12:27.910Z,35.80
2022-10-23T20:14:59.888Z,35.50
2022-10-23T20:17:31.335Z,36.80
2022-10-23T20:20:03.073Z,35.50
2022-10-23T20:22:34.681Z,35.20
2022-10-23T20:25:07.992Z,34.80
2022-10-23T20:27:39.449Z,36.50
2022-10-23T20:30:12.868Z,35.40
2022-10-23T20:32:44.599Z,35.40
2022-10-23T20:35:16.260Z,35.00
2022-10-23T20:37:47.710Z,35.20
2022-10-23T20:40:19.551Z,34.40
2022-10-23T20:42:50.996Z,36.90
2022-10-23T20:45:22.492Z,36.40
2022-10-23T20:47:54.019Z,38.90
2022-10-23T20:50:25.732Z,40.00
2022-10-23T20:52:57.162Z,41.10
2022-10-23T20:55:28.568Z,39.80
2022-10-23T20:57:59.977Z,40.20
2022-10-23T21:00:31.466Z,39.00
2022-10-23T21:03:04.108Z,42.20
2022-10-23T21:05:36.697Z,41.90
2022-10-23T21:08:08.203Z,40.60
2022-10-23T21:10:47.845Z,41.20
2022-10-23T21:13:19.270Z,38.30
2022-10-23T21:15:50.969Z,39.20
2022-10-23T21:18:27.358Z,40.40
2022-10-23T21:21:19.485Z,40.00
2022-10-23T21:23:53.156Z,43.10
2022-10-23T21:26:25.513Z,41.60
2022-10-23T21:29:16.894Z,42.80
2022-10-23T21:31:55.080Z,41.50
2022-10-23T21:34:28.156Z,43.80
2022-10-23T21:37:17.840Z,43.80
2022-10-23T21:39:49.486Z,42.60
2022-10-23T21:42:21.068Z,41.70
2022-10-23T21:44:52.489Z,42.40
2022-10-23T21:47:23.888Z,44.30
2022-10-23T21:49:55.345Z,43.70
2022-10-23T21:52:26.939Z,47.20
2022-10-23T21:54:58.747Z,44.60
2022-10-23T21:57:33.639Z,45.70
2022-10-23T22:00:06.011Z,46.40
2022-10-23T22:02:37.634Z,45.50
2022-10-23T22:05:10.280Z,45.80
2022-10-23T22:07:41.925Z,43.40
2022-10-23T22:10:14.054Z,43.40
2022-10-23T22:12:45.466Z,45.20
2022-10-23T22:15:17.065Z,46.90
2022-10-23T22:17:48.531Z,50.50
2022-10-23T22:20:20.192Z,47.70
2022-10-23T22:22:51.711Z,50.20
2022-10-23T22:25:23.108Z,51.30
2022-10-23T22:27:54.648Z,49.60
2022-10-23T22:30:26.167Z,49.20
2022-10-23T22:32:57.659Z,49.50
2022-10-23T22:35:30.727Z,47.60
2022-10-23T22:38:02.285Z,48.60
2022-10-23T22:40:37.059Z,50.00
2022-10-23T22:43:08.566Z,50.40
2022-10-23T22:45:40.134Z,48.10
2022-10-23T22:48:11.547Z,48.60
2022-10-23T22:50:42.911Z,48.50
2022-10-23T22:53:14.341Z,48.80
2022-10-23T22:55:45.956Z,49.40
2022-10-23T22:58:17.448Z,49.50
2022-10-23T23:00:49.456Z,48.00
2022-10-23T23:03:21.044Z,48.80
2022-10-23T23:05:52.576Z,47.80
2022-10-23T23:08:24.045Z,48.40
2022-10-23T23:10:58.523Z,50.70
2022-10-23T23:13:30.585Z,49.10
2022-10-23T23:16:02.603Z,48.20
2022-10-23T23:18:35.816Z,47.90
2022-10-23T23:21:08.246Z,48.60
2022-10-23T23:23:39.637Z,49.00
2022-10-23T23:26:12.377Z,48.70
2022-10-23T23:28:44.362Z,50.10
2022-10-23T23:31:20.260Z,48.30
2022-10-23T23:33:52.775Z,49.50
2022-10-23T23:36:27.747Z,50.30
2022-10-23T23:39:00.095Z,50.00
2022-10-23T23:41:32.043Z,50.90
2022-10-23T23:44:03.548Z,50.50
2022-10-23T23:46:35.012Z,49.90
2022-10-23T23:49:06.545Z,49.90
2022-10-23T23:51:38.268Z,47.60
2022-10-23T23:54:09.745Z,49.00
2022-10-23T23:56:41.393Z,49.20
2022-10-23T23:59:12.844Z,50.60
